sensor_id;sensor_type;location;lat;lon;timestamp;pressure;altitude;pressure_sealevel;temperature;humidity
64460;BME280;50828;53.756;21.140;2023-03-24T00:00:33;98946.06;;;9.46;68.88
64460;BME280;50828;53.756;21.140;2023-03-24T00:05:41;98957.81;;;9.43;68.74
64460;BME280;50828;53.756;21.140;2023-03-24T00:10:50;98957.27;;;9.41;68.99
64460;BME280;50828;53.756;21.140;2023-03-24T00:15:59;98962.96;;;9.39;69.21
64460;BME280;50828;53.756;21.140;2023-03-24T00:21:09;98957.21;;;9.38;69.37
64460;BME280;50828;53.756;21.140;2023-03-24T00:26:19;98957.11;;;9.36;69.34
64460;BME280;50828;53.756;21.140;2023-03-24T00:31:28;98956.00;;;9.34;69.48
64460;BME280;50828;53.756;21.140;2023-03-24T00:36:37;98957.10;;;9.30;69.40
64460;BME280;50828;53.756;21.140;2023-03-24T00:41:46;98954.01;;;9.26;69.53
64460;BME280;50828;53.756;21.140;2023-03-24T00:46:55;98949.60;;;9.19;69.72
64460;BME280;50828;53.756;21.140;2023-03-24T00:52:05;98959.14;;;9.15;69.45
64460;BME280;50828;53.756;21.140;2023-03-24T00:57:16;98964.47;;;9.11;70.00
64460;BME280;50828;53.756;21.140;2023-03-24T01:02:27;98966.63;;;9.06;69.97
64460;BME280;50828;53.756;21.140;2023-03-24T01:07:37;98962.47;;;9.05;70.03
64460;BME280;50828;53.756;21.140;2023-03-24T01:12:48;98956.40;;;9.04;70.46
64460;BME280;50828;53.756;21.140;2023-03-24T01:17:56;98952.57;;;9.03;70.70
64460;BME280;50828;53.756;21.140;2023-03-24T01:23:08;98952.83;;;9.02;70.76
64460;BME280;50828;53.756;21.140;2023-03-24T01:28:19;98952.67;;;9.01;70.77
64460;BME280;50828;53.756;21.140;2023-03-24T01:33:30;98947.83;;;9.00;70.73
64460;BME280;50828;53.756;21.140;2023-03-24T01:38:40;98944.89;;;8.98;70.77
64460;BME280;50828;53.756;21.140;2023-03-24T01:43:48;98936.70;;;8.94;70.55
64460;BME280;50828;53.756;21.140;2023-03-24T01:48:59;98936.19;;;8.91;70.32
64460;BME280;50828;53.756;21.140;2023-03-24T01:54:10;98935.35;;;8.87;70.36
64460;BME280;50828;53.756;21.140;2023-03-24T01:59:25;98941.89;;;8.82;70.26
64460;BME280;50828;53.756;21.140;2023-03-24T02:05:02;98944.48;;;8.76;70.14
64460;BME280;50828;53.756;21.140;2023-03-24T02:10:21;98951.13;;;8.70;70.19
64460;BME280;50828;53.756;21.140;2023-03-24T02:15:32;98944.39;;;8.64;70.28
64460;BME280;50828;53.756;21.140;2023-03-24T02:26:52;98937.82;;;8.52;70.30
64460;BME280;50828;53.756;21.140;2023-03-24T02:32:46;98937.33;;;8.47;70.17
64460;BME280;50828;53.756;21.140;2023-03-24T02:38:20;98939.45;;;8.43;70.16
64460;BME280;50828;53.756;21.140;2023-03-24T02:43:41;98931.31;;;8.38;70.14
64460;BME280;50828;53.756;21.140;2023-03-24T02:49:03;98928.53;;;8.33;69.95
64460;BME280;50828;53.756;21.140;2023-03-24T02:54:17;98941.00;;;8.29;69.98
64460;BME280;50828;53.756;21.140;2023-03-24T02:59:32;98929.60;;;8.26;69.96
64460;BME280;50828;53.756;21.140;2023-03-24T03:04:52;98941.20;;;8.21;70.26
64460;BME280;50828;53.756;21.140;2023-03-24T03:10:07;98944.62;;;8.17;70.22
64460;BME280;50828;53.756;21.140;2023-03-24T03:15:20;98941.00;;;8.11;70.44
64460;BME280;50828;53.756;21.140;2023-03-24T03:20:30;98943.15;;;8.07;70.42
64460;BME280;50828;53.756;21.140;2023-03-24T03:25:45;98928.79;;;8.03;70.56
64460;BME280;50828;53.756;21.140;2023-03-24T03:30:58;98932.46;;;7.99;70.60
64460;BME280;50828;53.756;21.140;2023-03-24T03:36:17;98932.63;;;7.96;70.37
64460;BME280;50828;53.756;21.140;2023-03-24T03:41:28;98939.98;;;7.92;70.62
64460;BME280;50828;53.756;21.140;2023-03-24T03:46:37;98930.27;;;7.86;70.61
64460;BME280;50828;53.756;21.140;2023-03-24T03:51:48;98926.27;;;7.82;70.58
64460;BME280;50828;53.756;21.140;2023-03-24T03:56:57;98935.94;;;7.78;70.40
64460;BME280;50828;53.756;21.140;2023-03-24T04:02:26;98945.83;;;7.77;70.72
64460;BME280;50828;53.756;21.140;2023-03-24T04:07:42;98942.37;;;7.76;70.72
64460;BME280;50828;53.756;21.140;2023-03-24T04:13:17;98939.88;;;7.76;70.86
64460;BME280;50828;53.756;21.140;2023-03-24T04:19:01;98945.46;;;7.76;70.96
64460;BME280;50828;53.756;21.140;2023-03-24T04:24:21;98943.09;;;7.75;70.90
64460;BME280;50828;53.756;21.140;2023-03-24T04:29:39;98939.27;;;7.74;71.39
64460;BME280;50828;53.756;21.140;2023-03-24T04:34:54;98940.14;;;7.74;71.36
64460;BME280;50828;53.756;21.140;2023-03-24T04:40:27;98945.63;;;7.73;71.29
64460;BME280;50828;53.756;21.140;2023-03-24T04:45:36;98943.31;;;7.70;71.06
64460;BME280;50828;53.756;21.140;2023-03-24T04:51:14;98943.42;;;7.68;70.99
64460;BME280;50828;53.756;21.140;2023-03-24T04:56:42;98935.60;;;7.66;71.18
64460;BME280;50828;53.756;21.140;2023-03-24T05:02:01;98932.51;;;7.69;71.08
64460;BME280;50828;53.756;21.140;2023-03-24T05:07:14;98934.73;;;7.74;71.12
64460;BME280;50828;53.756;21.140;2023-03-24T05:12:25;98943.14;;;7.78;71.43
64460;BME280;50828;53.756;21.140;2023-03-24T05:18:04;98943.29;;;7.82;71.47
64460;BME280;50828;53.756;21.140;2023-03-24T05:23:13;98933.13;;;7.85;71.81
64460;BME280;50828;53.756;21.140;2023-03-24T05:28:23;98925.48;;;7.88;71.98
64460;BME280;50828;53.756;21.140;2023-03-24T05:33:31;98917.77;;;7.91;71.94
64460;BME280;50828;53.756;21.140;2023-03-24T05:38:41;98905.56;;;7.94;71.93
64460;BME280;50828;53.756;21.140;2023-03-24T05:43:50;98904.88;;;7.97;71.88
64460;BME280;50828;53.756;21.140;2023-03-24T05:48:59;98893.02;;;7.99;72.14
64460;BME280;50828;53.756;21.140;2023-03-24T05:54:12;98889.33;;;8.03;72.18
64460;BME280;50828;53.756;21.140;2023-03-24T05:59:40;98889.11;;;8.07;72.58
64460;BME280;50828;53.756;21.140;2023-03-24T06:05:12;98887.83;;;8.16;72.32
64460;BME280;50828;53.756;21.140;2023-03-24T06:10:22;98882.24;;;8.22;72.35
64460;BME280;50828;53.756;21.140;2023-03-24T06:15:32;98884.40;;;8.32;72.39
64460;BME280;50828;53.756;21.140;2023-03-24T06:21:03;98876.90;;;8.41;72.68
64460;BME280;50828;53.756;21.140;2023-03-24T06:26:13;98874.02;;;8.51;72.32
64460;BME280;50828;53.756;21.140;2023-03-24T06:31:33;98873.20;;;8.59;72.25
64460;BME280;50828;53.756;21.140;2023-03-24T06:36:43;98868.55;;;8.68;72.45
64460;BME280;50828;53.756;21.140;2023-03-24T06:41:51;98862.27;;;8.74;72.33
64460;BME280;50828;53.756;21.140;2023-03-24T06:46:59;98853.36;;;8.83;72.41
64460;BME280;50828;53.756;21.140;2023-03-24T06:52:07;98835.38;;;8.91;72.38
64460;BME280;50828;53.756;21.140;2023-03-24T06:57:28;98830.45;;;8.97;72.51
64460;BME280;50828;53.756;21.140;2023-03-24T07:03:02;98830.70;;;9.06;72.48
64460;BME280;50828;53.756;21.140;2023-03-24T07:08:15;98819.83;;;9.12;72.47
64460;BME280;50828;53.756;21.140;2023-03-24T07:13:44;98811.61;;;9.21;72.66
64460;BME280;50828;53.756;21.140;2023-03-24T07:18:54;98804.17;;;9.29;72.28
64460;BME280;50828;53.756;21.140;2023-03-24T07:24:02;98811.57;;;9.38;72.55
64460;BME280;50828;53.756;21.140;2023-03-24T07:29:23;98818.77;;;9.47;72.82
64460;BME280;50828;53.756;21.140;2023-03-24T07:34:51;98823.23;;;9.58;72.58
64460;BME280;50828;53.756;21.140;2023-03-24T07:40:00;98815.17;;;9.71;72.75
64460;BME280;50828;53.756;21.140;2023-03-24T07:45:11;98814.33;;;9.83;72.73
64460;BME280;50828;53.756;21.140;2023-03-24T07:50:19;98831.28;;;9.96;72.48
64460;BME280;50828;53.756;21.140;2023-03-24T07:55:28;98826.55;;;10.11;72.47
64460;BME280;50828;53.756;21.140;2023-03-24T08:00:45;98822.25;;;10.24;72.36
64460;BME280;50828;53.756;21.140;2023-03-24T08:06:04;98809.08;;;10.36;72.43
64460;BME280;50828;53.756;21.140;2023-03-24T08:11:22;98798.28;;;10.46;72.48
64460;BME280;50828;53.756;21.140;2023-03-24T08:16:31;98791.95;;;10.58;72.49
64460;BME280;50828;53.756;21.140;2023-03-24T08:21:39;98782.73;;;10.70;72.27
64460;BME280;50828;53.756;21.140;2023-03-24T08:26:47;98775.89;;;10.84;72.47
64460;BME280;50828;53.756;21.140;2023-03-24T08:31:55;98770.64;;;10.97;72.45
64460;BME280;50828;53.756;21.140;2023-03-24T08:37:04;98760.29;;;11.11;72.29
64460;BME280;50828;53.756;21.140;2023-03-24T08:42:12;98758.27;;;11.26;72.06
64460;BME280;50828;53.756;21.140;2023-03-24T08:47:21;98754.69;;;11.41;71.73
64460;BME280;50828;53.756;21.140;2023-03-24T08:52:29;98745.30;;;11.55;71.64
64460;BME280;50828;53.756;21.140;2023-03-24T08:57:38;98729.45;;;11.65;71.90
64460;BME280;50828;53.756;21.140;2023-03-24T09:02:48;98725.68;;;11.79;71.14
64460;BME280;50828;53.756;21.140;2023-03-24T09:07:57;98714.44;;;11.89;71.49
64460;BME280;50828;53.756;21.140;2023-03-24T09:13:07;98712.38;;;12.02;71.36
64460;BME280;50828;53.756;21.140;2023-03-24T09:18:16;98708.66;;;12.15;70.86
64460;BME280;50828;53.756;21.140;2023-03-24T09:23:26;98699.50;;;12.30;70.96
64460;BME280;50828;53.756;21.140;2023-03-24T09:28:35;98687.34;;;12.42;70.41
64460;BME280;50828;53.756;21.140;2023-03-24T09:33:44;98677.95;;;12.56;70.22
64460;BME280;50828;53.756;21.140;2023-03-24T09:38:52;98666.96;;;12.66;69.67
64460;BME280;50828;53.756;21.140;2023-03-24T09:44:02;98663.45;;;12.78;69.77
64460;BME280;50828;53.756;21.140;2023-03-24T09:49:15;98664.05;;;12.91;69.53
64460;BME280;50828;53.756;21.140;2023-03-24T09:54:27;98656.92;;;13.05;69.33
64460;BME280;50828;53.756;21.140;2023-03-24T09:59:39;98652.52;;;13.19;68.78
64460;BME280;50828;53.756;21.140;2023-03-24T10:04:48;98644.34;;;13.32;68.72
64460;BME280;50828;53.756;21.140;2023-03-24T10:09:59;98639.48;;;13.45;67.78
64460;BME280;50828;53.756;21.140;2023-03-24T10:15:15;98628.77;;;13.58;67.39
64460;BME280;50828;53.756;21.140;2023-03-24T10:20:50;98629.38;;;13.68;66.92
64460;BME280;50828;53.756;21.140;2023-03-24T10:26:04;98629.17;;;13.78;66.31
64460;BME280;50828;53.756;21.140;2023-03-24T10:31:19;98619.93;;;13.83;65.55
64460;BME280;50828;53.756;21.140;2023-03-24T10:36:29;98610.84;;;13.87;65.65
64460;BME280;50828;53.756;21.140;2023-03-24T10:41:38;98602.05;;;13.88;65.74
64460;BME280;50828;53.756;21.140;2023-03-24T10:46:51;98597.58;;;13.91;65.84
64460;BME280;50828;53.756;21.140;2023-03-24T10:52:07;98589.19;;;13.92;65.85
64460;BME280;50828;53.756;21.140;2023-03-24T10:57:18;98582.29;;;13.92;66.07
64460;BME280;50828;53.756;21.140;2023-03-24T11:02:28;98571.39;;;13.89;66.26
64460;BME280;50828;53.756;21.140;2023-03-24T11:07:39;98557.22;;;13.84;66.30
64460;BME280;50828;53.756;21.140;2023-03-24T11:13:00;98547.56;;;13.81;66.58
64460;BME280;50828;53.756;21.140;2023-03-24T11:18:16;98537.60;;;13.82;66.67
64460;BME280;50828;53.756;21.140;2023-03-24T11:23:29;98527.33;;;13.86;66.76
64460;BME280;50828;53.756;21.140;2023-03-24T11:28:41;98516.70;;;13.91;66.90
64460;BME280;50828;53.756;21.140;2023-03-24T11:33:57;98508.53;;;13.98;66.69
64460;BME280;50828;53.756;21.140;2023-03-24T11:39:15;98497.25;;;14.02;66.66
64460;BME280;50828;53.756;21.140;2023-03-24T11:44:25;98493.10;;;14.12;66.32
64460;BME280;50828;53.756;21.140;2023-03-24T11:49:35;98479.23;;;14.19;66.03
64460;BME280;50828;53.756;21.140;2023-03-24T11:54:46;98477.63;;;14.30;65.86
64460;BME280;50828;53.756;21.140;2023-03-24T11:59:58;98477.82;;;14.43;65.49
64460;BME280;50828;53.756;21.140;2023-03-24T12:05:27;98484.02;;;14.54;65.30
64460;BME280;50828;53.756;21.140;2023-03-24T12:10:47;98479.77;;;14.63;64.57
64460;BME280;50828;53.756;21.140;2023-03-24T12:16:14;98473.08;;;14.69;64.38
64460;BME280;50828;53.756;21.140;2023-03-24T12:21:38;98466.86;;;14.73;64.22
64460;BME280;50828;53.756;21.140;2023-03-24T12:26:47;98451.03;;;14.78;64.42
64460;BME280;50828;53.756;21.140;2023-03-24T12:32:14;98437.77;;;14.84;64.21
64460;BME280;50828;53.756;21.140;2023-03-24T12:37:29;98429.69;;;14.94;64.43
64460;BME280;50828;53.756;21.140;2023-03-24T12:42:40;98424.08;;;15.08;64.34
64460;BME280;50828;53.756;21.140;2023-03-24T12:53:39;98421.31;;;15.34;62.89
64460;BME280;50828;53.756;21.140;2023-03-24T12:58:52;98419.24;;;15.44;62.49
64460;BME280;50828;53.756;21.140;2023-03-24T13:04:09;98409.02;;;15.49;61.99
64460;BME280;50828;53.756;21.140;2023-03-24T13:09:24;98400.23;;;15.56;62.35
64460;BME280;50828;53.756;21.140;2023-03-24T13:14:48;98381.36;;;15.65;62.62
64460;BME280;50828;53.756;21.140;2023-03-24T13:19:58;98370.95;;;15.72;62.21
64460;BME280;50828;53.756;21.140;2023-03-24T13:25:24;98373.64;;;15.82;61.98
64460;BME280;50828;53.756;21.140;2023-03-24T13:30:39;98364.79;;;15.91;61.32
64460;BME280;50828;53.756;21.140;2023-03-24T13:35:59;98362.45;;;15.98;60.97
64460;BME280;50828;53.756;21.140;2023-03-24T13:41:19;98358.70;;;16.00;60.99
64460;BME280;50828;53.756;21.140;2023-03-24T13:46:29;98352.39;;;16.03;61.09
64460;BME280;50828;53.756;21.140;2023-03-24T13:51:42;98345.55;;;16.04;60.87
64460;BME280;50828;53.756;21.140;2023-03-24T13:56:54;98330.73;;;16.05;60.79
64460;BME280;50828;53.756;21.140;2023-03-24T14:02:42;98322.71;;;16.08;60.48
64460;BME280;50828;53.756;21.140;2023-03-24T14:07:53;98314.58;;;16.11;60.20
64460;BME280;50828;53.756;21.140;2023-03-24T14:13:24;98310.54;;;16.16;60.14
64460;BME280;50828;53.756;21.140;2023-03-24T14:18:43;98303.02;;;16.25;59.96
64460;BME280;50828;53.756;21.140;2023-03-24T14:23:50;98298.66;;;16.31;59.89
64460;BME280;50828;53.756;21.140;2023-03-24T14:29:03;98288.20;;;16.36;59.56
64460;BME280;50828;53.756;21.140;2023-03-24T14:34:14;98279.55;;;16.39;59.22
64460;BME280;50828;53.756;21.140;2023-03-24T14:39:29;98271.39;;;16.39;59.44
64460;BME280;50828;53.756;21.140;2023-03-24T14:44:56;98266.57;;;16.37;59.13
64460;BME280;50828;53.756;21.140;2023-03-24T14:50:16;98263.08;;;16.34;59.10
64460;BME280;50828;53.756;21.140;2023-03-24T14:55:26;98251.95;;;16.28;58.86
64460;BME280;50828;53.756;21.140;2023-03-24T15:00:37;98254.59;;;16.26;58.98
64460;BME280;50828;53.756;21.140;2023-03-24T15:06:13;98264.58;;;16.20;59.79
64460;BME280;50828;53.756;21.140;2023-03-24T15:11:24;98268.38;;;16.09;60.34
64460;BME280;50828;53.756;21.140;2023-03-24T15:16:37;98275.66;;;16.00;60.82
64460;BME280;50828;53.756;21.140;2023-03-24T15:21:55;98284.02;;;15.86;61.69
64460;BME280;50828;53.756;21.140;2023-03-24T15:27:30;98295.09;;;15.71;62.32
64460;BME280;50828;53.756;21.140;2023-03-24T15:32:39;98293.83;;;15.53;63.25
64460;BME280;50828;53.756;21.140;2023-03-24T15:37:57;98298.48;;;15.35;63.61
64460;BME280;50828;53.756;21.140;2023-03-24T15:43:15;98301.71;;;15.18;63.92
64460;BME280;50828;53.756;21.140;2023-03-24T15:48:29;98298.20;;;15.04;64.28
64460;BME280;50828;53.756;21.140;2023-03-24T15:53:41;98292.05;;;14.93;64.71
64460;BME280;50828;53.756;21.140;2023-03-24T15:58:55;98288.50;;;14.85;65.04
64460;BME280;50828;53.756;21.140;2023-03-24T16:04:06;98296.08;;;14.79;65.24
64460;BME280;50828;53.756;21.140;2023-03-24T16:09:15;98298.48;;;14.72;65.46
64460;BME280;50828;53.756;21.140;2023-03-24T16:14:28;98308.58;;;14.66;65.67
64460;BME280;50828;53.756;21.140;2023-03-24T16:19:38;98304.73;;;14.59;65.84
64460;BME280;50828;53.756;21.140;2023-03-24T16:24:48;98294.73;;;14.53;65.84
64460;BME280;50828;53.756;21.140;2023-03-24T16:29:57;98282.65;;;14.47;65.95
64460;BME280;50828;53.756;21.140;2023-03-24T16:35:05;98280.16;;;14.43;66.01
64460;BME280;50828;53.756;21.140;2023-03-24T16:40:24;98281.04;;;14.39;66.24
64460;BME280;50828;53.756;21.140;2023-03-24T16:45:34;98278.58;;;14.35;66.15
64460;BME280;50828;53.756;21.140;2023-03-24T16:50:44;98289.42;;;14.30;66.32
64460;BME280;50828;53.756;21.140;2023-03-24T16:55:56;98296.55;;;14.25;66.16
64460;BME280;50828;53.756;21.140;2023-03-24T17:01:15;98306.35;;;14.20;66.19
64460;BME280;50828;53.756;21.140;2023-03-24T17:06:32;98311.20;;;14.15;66.12
64460;BME280;50828;53.756;21.140;2023-03-24T17:11:41;98315.69;;;14.10;66.26
64460;BME280;50828;53.756;21.140;2023-03-24T17:16:49;98317.55;;;14.07;66.21
64460;BME280;50828;53.756;21.140;2023-03-24T17:22:02;98314.06;;;14.04;66.33
64460;BME280;50828;53.756;21.140;2023-03-24T17:27:14;98305.42;;;14.02;66.25
64460;BME280;50828;53.756;21.140;2023-03-24T17:32:28;98302.26;;;13.97;66.35
64460;BME280;50828;53.756;21.140;2023-03-24T17:37:37;98310.59;;;13.95;66.16
64460;BME280;50828;53.756;21.140;2023-03-24T17:42:46;98309.63;;;13.91;66.18
64460;BME280;50828;53.756;21.140;2023-03-24T17:47:56;98308.79;;;13.89;66.20
64460;BME280;50828;53.756;21.140;2023-03-24T17:53:03;98302.09;;;13.84;66.11
64460;BME280;50828;53.756;21.140;2023-03-24T17:58:12;98301.92;;;13.80;66.10
64460;BME280;50828;53.756;21.140;2023-03-24T18:03:19;98316.73;;;13.74;66.03
64460;BME280;50828;53.756;21.140;2023-03-24T18:08:28;98327.92;;;13.69;65.97
64460;BME280;50828;53.756;21.140;2023-03-24T18:13:37;98327.77;;;13.64;66.01
64460;BME280;50828;53.756;21.140;2023-03-24T18:18:46;98330.54;;;13.60;66.13
64460;BME280;50828;53.756;21.140;2023-03-24T18:23:54;98334.60;;;13.58;66.32
64460;BME280;50828;53.756;21.140;2023-03-24T18:29:03;98337.85;;;13.57;66.47
64460;BME280;50828;53.756;21.140;2023-03-24T18:34:12;98336.80;;;13.55;66.53
64460;BME280;50828;53.756;21.140;2023-03-24T18:39:21;98332.61;;;13.54;66.63
64460;BME280;50828;53.756;21.140;2023-03-24T18:44:30;98335.71;;;13.53;66.73
64460;BME280;50828;53.756;21.140;2023-03-24T18:49:38;98332.44;;;13.52;66.81
64460;BME280;50828;53.756;21.140;2023-03-24T18:54:46;98330.70;;;13.52;66.71
64460;BME280;50828;53.756;21.140;2023-03-24T18:59:56;98341.61;;;13.50;66.54
64460;BME280;50828;53.756;21.140;2023-03-24T19:05:07;98344.19;;;13.47;66.47
64460;BME280;50828;53.756;21.140;2023-03-24T19:10:16;98346.09;;;13.43;66.48
64460;BME280;50828;53.756;21.140;2023-03-24T19:15:25;98353.70;;;13.38;66.47
64460;BME280;50828;53.756;21.140;2023-03-24T19:20:35;98356.15;;;13.34;66.40
64460;BME280;50828;53.756;21.140;2023-03-24T19:25:44;98360.35;;;13.28;66.52
64460;BME280;50828;53.756;21.140;2023-03-24T19:30:53;98357.41;;;13.22;66.46
64460;BME280;50828;53.756;21.140;2023-03-24T19:36:02;98356.39;;;13.17;66.56
64460;BME280;50828;53.756;21.140;2023-03-24T19:41:12;98352.84;;;13.13;66.78
64460;BME280;50828;53.756;21.140;2023-03-24T19:46:22;98391.22;;;13.10;66.73
64460;BME280;50828;53.756;21.140;2023-03-24T19:51:30;98418.42;;;13.08;66.30
64460;BME280;50828;53.756;21.140;2023-03-24T19:56:38;98426.89;;;13.04;65.78
64460;BME280;50828;53.756;21.140;2023-03-24T20:01:45;98431.51;;;12.97;65.13
64460;BME280;50828;53.756;21.140;2023-03-24T20:06:54;98433.45;;;12.87;64.66
64460;BME280;50828;53.756;21.140;2023-03-24T20:12:01;98457.72;;;12.77;64.26
64460;BME280;50828;53.756;21.140;2023-03-24T20:17:10;98447.14;;;12.58;64.21
64460;BME280;50828;53.756;21.140;2023-03-24T20:22:22;98459.09;;;12.51;64.60
64460;BME280;50828;53.756;21.140;2023-03-24T20:27:30;98455.40;;;12.37;64.57
64460;BME280;50828;53.756;21.140;2023-03-24T20:32:37;98452.34;;;12.23;64.69
64460;BME280;50828;53.756;21.140;2023-03-24T20:37:45;98455.45;;;12.05;64.73
64460;BME280;50828;53.756;21.140;2023-03-24T20:42:53;98464.19;;;11.88;64.57
64460;BME280;50828;53.756;21.140;2023-03-24T20:48:01;98470.06;;;11.71;64.86
64460;BME280;50828;53.756;21.140;2023-03-24T20:53:09;98473.27;;;11.55;64.97
64460;BME280;50828;53.756;21.140;2023-03-24T20:58:16;98460.57;;;11.40;65.29
64460;BME280;50828;53.756;21.140;2023-03-24T21:03:24;98471.05;;;11.26;65.63
64460;BME280;50828;53.756;21.140;2023-03-24T21:08:32;98478.98;;;11.13;65.69
64460;BME280;50828;53.756;21.140;2023-03-24T21:13:42;98480.75;;;11.00;65.66
64460;BME280;50828;53.756;21.140;2023-03-24T21:18:50;98475.54;;;10.85;65.88
64460;BME280;50828;53.756;21.140;2023-03-24T21:23:58;98479.39;;;10.75;66.15
64460;BME280;50828;53.756;21.140;2023-03-24T21:29:06;98470.51;;;10.63;66.26
64460;BME280;50828;53.756;21.140;2023-03-24T21:34:15;98477.63;;;10.51;66.49
64460;BME280;50828;53.756;21.140;2023-03-24T21:39:23;98478.34;;;10.40;66.73
64460;BME280;50828;53.756;21.140;2023-03-24T21:44:31;98469.73;;;10.32;66.89
64460;BME280;50828;53.756;21.140;2023-03-24T21:49:39;98463.20;;;10.24;67.40
64460;BME280;50828;53.756;21.140;2023-03-24T21:54:50;98473.39;;;10.16;67.38
64460;BME280;50828;53.756;21.140;2023-03-24T21:59:58;98477.92;;;10.11;67.78
64460;BME280;50828;53.756;21.140;2023-03-24T22:05:16;98486.54;;;10.05;67.98
64460;BME280;50828;53.756;21.140;2023-03-24T22:10:24;98488.71;;;9.99;67.82
64460;BME280;50828;53.756;21.140;2023-03-24T22:15:34;98484.17;;;9.93;67.95
64460;BME280;50828;53.756;21.140;2023-03-24T22:20:42;98483.95;;;9.85;68.14
64460;BME280;50828;53.756;21.140;2023-03-24T22:25:50;98485.61;;;9.81;68.65
64460;BME280;50828;53.756;21.140;2023-03-24T22:31:02;98500.10;;;9.77;68.83
64460;BME280;50828;53.756;21.140;2023-03-24T22:36:11;98497.88;;;9.73;68.87
64460;BME280;50828;53.756;21.140;2023-03-24T22:41:18;98485.98;;;9.70;69.15
64460;BME280;50828;53.756;21.140;2023-03-24T22:46:26;98477.45;;;9.65;69.22
64460;BME280;50828;53.756;21.140;2023-03-24T22:51:34;98490.66;;;9.62;69.09
64460;BME280;50828;53.756;21.140;2023-03-24T22:56:41;98496.29;;;9.56;69.32
64460;BME280;50828;53.756;21.140;2023-03-24T23:01:49;98493.34;;;9.53;69.31
64460;BME280;50828;53.756;21.140;2023-03-24T23:07:13;98503.89;;;9.47;69.33
64460;BME280;50828;53.756;21.140;2023-03-24T23:12:22;98525.27;;;9.39;69.37
64460;BME280;50828;53.756;21.140;2023-03-24T23:17:29;98521.04;;;9.31;69.47
64460;BME280;50828;53.756;21.140;2023-03-24T23:22:37;98519.11;;;9.22;69.34
64460;BME280;50828;53.756;21.140;2023-03-24T23:27:46;98531.11;;;9.15;69.42
64460;BME280;50828;53.756;21.140;2023-03-24T23:32:53;98518.73;;;9.08;69.33
64460;BME280;50828;53.756;21.140;2023-03-24T23:38:02;98502.48;;;9.00;69.50
64460;BME280;50828;53.756;21.140;2023-03-24T23:43:10;98500.95;;;8.96;69.51
64460;BME280;50828;53.756;21.140;2023-03-24T23:48:17;98524.22;;;8.92;69.49
64460;BME280;50828;53.756;21.140;2023-03-24T23:53:25;98533.09;;;8.84;69.28
64460;BME280;50828;53.756;21.140;2023-03-24T23:58:35;98535.32;;;8.79;69.15
